Capt Rod — WDH9459 — position and weather

sailwx.info

Track history (hours):
 
Tides and Currents Weather Stations Pressure Air Temp Water Temp Dewpoint Dewpoint Depression Visibility Wind Speed Wind Dir Waves Ship Positions

Capt Rod

Owner: REC Marine Logistics LLC, Galliano, LA. More information available from US FCC via Universal Licensing System and Coast Guard Vessel Documentation Center.

Last reported at 2017-Nov-18 11:53 UTC. Time now 2017-Nov-18 23:23 UTC.
Position N 29°40' W 092°03'.

Length 16 m; draft 1.5 m.

Type: Other ship. MMSI: 367668280.

Date/timePositionNaut miles runAvg speedWind from/ knotsBaromVisibWave heightAir tempDewpointWater temp
2017-Nov-18 11:53N 29°40' W 092°03'616.3
2017-Nov-18 11:30N 29°45' W 092°07'3 6.2
2017-Nov-18 11:00N 29°48' W 092°09'0 0.0
2017-Nov-18 10:31N 29°48' W 092°09'0 0.0
2017-Nov-18 10:01N 29°48' W 092°09'0 0.0
2017-Nov-18 09:31N 29°48' W 092°09'0 0.0
2017-Nov-18 09:01N 29°48' W 092°09'0 0.0
2017-Nov-18 08:31N 29°48' W 092°09'0 0.0
2017-Nov-18 08:01N 29°48' W 092°09'0 0.0
2017-Nov-18 07:31N 29°48' W 092°09'0 0.0
2017-Nov-18 07:00N 29°48' W 092°09'0 0.0
2017-Nov-18 06:31N 29°48' W 092°09'0 0.0
2017-Nov-18 06:01N 29°48' W 092°09'0 0.0
2017-Nov-18 05:31N 29°48' W 092°09'0 0.0
2017-Nov-18 05:01N 29°48' W 092°09'0 0.0
2017-Nov-18 04:31N 29°48' W 092°09'0 0.0
2017-Nov-18 04:01N 29°48' W 092°09'0 0.0
2017-Nov-18 03:31N 29°48' W 092°09'0 0.0
2017-Nov-18 03:00N 29°48' W 092°09'0 0.0
2017-Nov-18 02:30N 29°48' W 092°09'0 0.1
2017-Nov-18 02:00N 29°47' W 092°09'1 1.2
2017-Nov-18 01:31N 29°47' W 092°08'16 1.0
2017-Nov-17 09:20N 29°32' W 092°05'712.0
2017-Nov-17 08:48N 29°37' W 092°00'310.6
2017-Nov-17 08:31N 29°39' W 092°02'510.6
2017-Nov-17 08:01N 29°44' W 092°06'5 9.0
2017-Nov-17 07:30N 29°48' W 092°09'0 0.0
2017-Nov-17 07:00N 29°48' W 092°09'0 0.0
2017-Nov-17 06:30N 29°48' W 092°09'0 0.1
2017-Nov-17 06:00N 29°48' W 092°09'0 0.0
2017-Nov-17 05:31N 29°48' W 092°09'2 4.3
2017-Nov-17 05:01N 29°47' W 092°11'0 0.0
2017-Nov-17 04:31N 29°47' W 092°11'0 0.0
2017-Nov-17 04:01N 29°47' W 092°11'0 0.0
2017-Nov-17 03:31N 29°47' W 092°11'1 1.3
2017-Nov-17 03:01N 29°47' W 092°10'4 8.8
2017-Nov-17 02:31N 29°44' W 092°06'17 1.5
2017-Nov-16 14:43N 29°26' W 092°04'1 0.4
2017-Nov-16 12:54N 29°27' W 092°04'614.4
2017-Nov-16 12:30N 29°33' W 092°04'713.2
2017-Nov-16 12:00N 29°39' W 092°02'815.6
2017-Nov-16 11:30N 29°45' W 092°07'2 4.6
2017-Nov-16 11:00N 29°48' W 092°09'0 0.0
2017-Nov-16 10:31N 29°48' W 092°09'0 0.0
2017-Nov-16 10:00N 29°48' W 092°09'0 0.0
2017-Nov-16 09:30N 29°48' W 092°09'0 0.0
2017-Nov-16 09:01N 29°48' W 092°09'0 0.0
2017-Nov-16 08:31N 29°48' W 092°09'0 0.0
2017-Nov-16 08:00N 29°48' W 092°09'0 0.0
2017-Nov-16 07:31N 29°48' W 092°09'0 0.0
2017-Nov-16 07:00N 29°48' W 092°09'0 0.0
2017-Nov-16 06:30N 29°48' W 092°09'0 0.0
2017-Nov-16 06:00N 29°48' W 092°09'0 0.0
2017-Nov-16 05:31N 29°48' W 092°09'0 0.1
2017-Nov-16 05:01N 29°48' W 092°09'0 0.6
2017-Nov-16 04:31N 29°47' W 092°09'2 4.2
2017-Nov-16 04:01N 29°47' W 092°11'0 0.0
2017-Nov-16 03:30N 29°47' W 092°11'0 0.0
2017-Nov-16 03:01N 29°47' W 092°11'1 2.8
2017-Nov-16 02:30N 29°47' W 092°09'2 3.9
2017-Nov-16 02:01N 29°46' W 092°08'7 0.5
2017-Nov-15 11:53N 29°40' W 092°03'615.3
2017-Nov-15 11:30N 29°45' W 092°07'3 6.7
2017-Nov-15 11:00N 29°47' W 092°09'0 0.0
2017-Nov-15 10:30N 29°47' W 092°09'0 0.0
2017-Nov-15 10:00N 29°47' W 092°09'0 0.0
2017-Nov-15 09:30N 29°47' W 092°09'0 0.0
2017-Nov-15 09:00N 29°47' W 092°09'0 0.0
2017-Nov-15 08:30N 29°47' W 092°09'0 0.0
2017-Nov-15 08:00N 29°47' W 092°09'0 0.0
2017-Nov-15 07:31N 29°47' W 092°09'0 0.0
2017-Nov-15 07:00N 29°47' W 092°09'0 0.0
2017-Nov-15 06:30N 29°47' W 092°09'0 0.0
2017-Nov-15 06:00N 29°47' W 092°09'0 0.0
2017-Nov-15 05:30N 29°47' W 092°09'0 0.0
2017-Nov-15 05:00N 29°47' W 092°09'0 0.0
2017-Nov-15 04:31N 29°47' W 092°09'0 0.0
2017-Nov-15 04:00N 29°47' W 092°09'0 0.0
2017-Nov-15 03:30N 29°47' W 092°09'2 4.3
2017-Nov-15 03:00N 29°47' W 092°11'0 0.0
2017-Nov-15 02:30N 29°47' W 092°11'0 0.0
2017-Nov-15 02:00N 29°47' W 092°11'2 4.3
2017-Nov-15 01:30N 29°47' W 092°09'9 0.6
2017-Nov-14 11:58N 29°40' W 092°03'815.5
2017-Nov-14 11:26N 29°47' W 092°09'0 0.9
2017-Nov-14 11:00N 29°48' W 092°09'0 0.0
2017-Nov-14 10:30N 29°48' W 092°09'0 0.0
2017-Nov-14 10:00N 29°48' W 092°09'0 0.0
2017-Nov-14 09:29N 29°48' W 092°09'0 0.0
2017-Nov-14 08:31N 29°48' W 092°09'0 0.2
2017-Nov-14 08:30N 29°48' W 092°09'2 2.4
2017-Nov-14 07:37N 29°47' W 092°11'2 2.0
2017-Nov-14 06:36N 29°48' W 092°09'0 0.0
2017-Nov-14 05:51N 29°48' W 092°09'0 0.0
2017-Nov-14 04:29N 29°48' W 092°09'0 0.3
2017-Nov-14 03:29N 29°47' W 092°09'13 0.3
2017-Nov-12 12:23N 29°35' W 092°02'613.0
2017-Nov-12 11:54N 29°41' W 092°04'7 6.4
2017-Nov-12 10:43N 29°48' W 092°09'0 0.0
2017-Nov-12 10:29N 29°48' W 092°09'0 0.0
2017-Nov-12 09:59N 29°48' W 092°09'0 0.0
2017-Nov-12 09:29N 29°48' W 092°09'0 0.0
2017-Nov-12 08:57N 29°48' W 092°09'0 0.0
2017-Nov-12 08:29N 29°48' W 092°09'0 0.0
2017-Nov-12 01:59N 29°47' W 092°09'2 3.4
2017-Nov-12 01:21N 29°47' W 092°11'0 0.0
2017-Nov-12 00:59N 29°47' W 092°11'6 0.5
2017-Nov-11 11:35N 29°43' W 092°05'216.0
2017-Nov-11 11:29N 29°44' W 092°06'4 2.9
2017-Nov-11 10:07N 29°48' W 092°09'0 0.0
2017-Nov-11 09:47N 29°48' W 092°09'0 0.0
2017-Nov-11 09:09N 29°48' W 092°09'0 0.0
2017-Nov-11 08:59N 29°48' W 092°09'0 0.0
2017-Nov-11 08:27N 29°48' W 092°09'0 0.0
2017-Nov-11 07:59N 29°48' W 092°09'0 0.0
2017-Nov-11 07:25N 29°48' W 092°09'0 0.0
2017-Nov-11 06:55N 29°48' W 092°09'0 0.0
2017-Nov-11 06:29N 29°48' W 092°09'0 0.0
2017-Nov-11 05:33N 29°48' W 092°09'0 0.0
2017-Nov-11 05:27N 29°48' W 092°09'0 0.0
2017-Nov-11 04:59N 29°48' W 092°09'0 0.1
2017-Nov-11 04:29N 29°47' W 092°09'0 0.0
2017-Nov-11 03:59N 29°47' W 092°09'0 0.1
2017-Nov-11 03:30N 29°48' W 092°09'8 0.6
2017-Nov-10 13:52N 29°41' W 092°03'514.4
2017-Nov-10 13:30N 29°45' W 092°07'3 6.0
2017-Nov-10 13:00N 29°48' W 092°09'0 0.0
2017-Nov-10 12:30N 29°48' W 092°09'0 0.1
2017-Nov-10 12:00N 29°48' W 092°09'0 0.0
2017-Nov-10 11:31N 29°48' W 092°09'0 0.0
2017-Nov-10 11:00N 29°48' W 092°09'0 0.0
2017-Nov-10 10:30N 29°48' W 092°09'0 0.0
2017-Nov-10 10:00N 29°48' W 092°09'0 0.0
2017-Nov-10 09:31N 29°48' W 092°09'0 0.0
2017-Nov-10 09:00N 29°48' W 092°09'0 0.0
2017-Nov-10 08:30N 29°48' W 092°09'0 0.0
2017-Nov-10 08:01N 29°48' W 092°09'0 0.0
2017-Nov-10 07:30N 29°48' W 092°09'0 0.0
2017-Nov-10 07:01N 29°48' W 092°09'0 0.0
2017-Nov-10 06:30N 29°48' W 092°09'0 0.0
2017-Nov-10 06:00N 29°48' W 092°09'0 0.0
2017-Nov-10 05:30N 29°48' W 092°09'0 0.0
2017-Nov-10 05:00N 29°48' W 092°09'0 0.0
2017-Nov-10 04:30N 29°48' W 092°09'2 4.2
2017-Nov-10 04:00N 29°47' W 092°11'0 0.0
2017-Nov-10 03:30N 29°47' W 092°11'2 3.3
2017-Nov-10 03:00N 29°47' W 092°09'1 2.9
2017-Nov-10 02:30N 29°46' W 092°08'7 0.4
2017-Nov-09 11:45N 29°41' W 092°03'417.3
2017-Nov-09 11:30N 29°44' W 092°06'4 7.9
2017-Nov-09 11:00N 29°48' W 092°09'0 0.0
2017-Nov-09 10:30N 29°48' W 092°09'0 0.0
2017-Nov-09 10:00N 29°48' W 092°09'0 0.0
2017-Nov-09 09:30N 29°48' W 092°09'0 0.0
2017-Nov-09 09:00N 29°48' W 092°09'0 0.1
2017-Nov-09 08:30N 29°47' W 092°09'0 0.0
2017-Nov-09 08:00N 29°47' W 092°09'0 0.0
2017-Nov-09 07:30N 29°47' W 092°09'0 0.0
2017-Nov-09 07:00N 29°47' W 092°09'0 0.0
2017-Nov-09 06:30N 29°47' W 092°09'0 0.2
2017-Nov-09 06:00N 29°48' W 092°09'0 0.0
2017-Nov-09 05:30N 29°48' W 092°09'0 0.0
2017-Nov-09 05:00N 29°48' W 092°09'0 0.0
2017-Nov-09 04:30N 29°48' W 092°09'0 0.0
2017-Nov-09 04:00N 29°48' W 092°09'0 0.0
2017-Nov-09 03:30N 29°48' W 092°09'0 0.1
2017-Nov-09 03:00N 29°48' W 092°09'9 0.6
2017-Nov-08 12:03N 29°40' W 092°03'011.3
2017-Nov-08 12:00N 29°40' W 092°03'  
Track history (hours):
 
Tides and Currents Weather Stations Pressure Air Temp Water Temp Dewpoint Dewpoint Depression Visibility Wind Speed Wind Dir Waves Ship Positions

Capt Rod

Owner: REC Marine Logistics LLC, Galliano, LA. More information available from US FCC via Universal Licensing System and Coast Guard Vessel Documentation Center.

Last reported at 2017-Nov-18 11:53 UTC. Time now 2017-Nov-18 23:23 UTC.
Position N 29°40' W 092°03'.

Length 16 m; draft 1.5 m.

Type: Other ship. MMSI: 367668280.

Date/timePositionNaut miles runAvg speedWind from/ knotsBaromVisibWave heightAir tempDewpointWater temp
2017-Nov-18 11:53N 29°40' W 092°03'616.3
2017-Nov-18 11:30N 29°45' W 092°07'3 6.2
2017-Nov-18 11:00N 29°48' W 092°09'0 0.0
2017-Nov-18 10:31N 29°48' W 092°09'0 0.0
2017-Nov-18 10:01N 29°48' W 092°09'0 0.0
2017-Nov-18 09:31N 29°48' W 092°09'0 0.0
2017-Nov-18 09:01N 29°48' W 092°09'0 0.0
2017-Nov-18 08:31N 29°48' W 092°09'0 0.0
2017-Nov-18 08:01N 29°48' W 092°09'0 0.0
2017-Nov-18 07:31N 29°48' W 092°09'0 0.0
2017-Nov-18 07:00N 29°48' W 092°09'0 0.0
2017-Nov-18 06:31N 29°48' W 092°09'0 0.0
2017-Nov-18 06:01N 29°48' W 092°09'0 0.0
2017-Nov-18 05:31N 29°48' W 092°09'0 0.0
2017-Nov-18 05:01N 29°48' W 092°09'0 0.0
2017-Nov-18 04:31N 29°48' W 092°09'0 0.0
2017-Nov-18 04:01N 29°48' W 092°09'0 0.0
2017-Nov-18 03:31N 29°48' W 092°09'0 0.0
2017-Nov-18 03:00N 29°48' W 092°09'0 0.0
2017-Nov-18 02:30N 29°48' W 092°09'0 0.1
2017-Nov-18 02:00N 29°47' W 092°09'1 1.2
2017-Nov-18 01:31N 29°47' W 092°08'16 1.0
2017-Nov-17 09:20N 29°32' W 092°05'712.0
2017-Nov-17 08:48N 29°37' W 092°00'310.6
2017-Nov-17 08:31N 29°39' W 092°02'510.6
2017-Nov-17 08:01N 29°44' W 092°06'5 9.0
2017-Nov-17 07:30N 29°48' W 092°09'0 0.0
2017-Nov-17 07:00N 29°48' W 092°09'0 0.0
2017-Nov-17 06:30N 29°48' W 092°09'0 0.1
2017-Nov-17 06:00N 29°48' W 092°09'0 0.0
2017-Nov-17 05:31N 29°48' W 092°09'2 4.3
2017-Nov-17 05:01N 29°47' W 092°11'0 0.0
2017-Nov-17 04:31N 29°47' W 092°11'0 0.0
2017-Nov-17 04:01N 29°47' W 092°11'0 0.0
2017-Nov-17 03:31N 29°47' W 092°11'1 1.3
2017-Nov-17 03:01N 29°47' W 092°10'4 8.8
2017-Nov-17 02:31N 29°44' W 092°06'17 1.5
2017-Nov-16 14:43N 29°26' W 092°04'1 0.4
2017-Nov-16 12:54N 29°27' W 092°04'614.4
2017-Nov-16 12:30N 29°33' W 092°04'713.2
2017-Nov-16 12:00N 29°39' W 092°02'815.6
2017-Nov-16 11:30N 29°45' W 092°07'2 4.6
2017-Nov-16 11:00N 29°48' W 092°09'0 0.0
2017-Nov-16 10:31N 29°48' W 092°09'0 0.0
2017-Nov-16 10:00N 29°48' W 092°09'0 0.0
2017-Nov-16 09:30N 29°48' W 092°09'0 0.0
2017-Nov-16 09:01N 29°48' W 092°09'0 0.0
2017-Nov-16 08:31N 29°48' W 092°09'0 0.0
2017-Nov-16 08:00N 29°48' W 092°09'0 0.0
2017-Nov-16 07:31N 29°48' W 092°09'0 0.0
2017-Nov-16 07:00N 29°48' W 092°09'0 0.0
2017-Nov-16 06:30N 29°48' W 092°09'0 0.0
2017-Nov-16 06:00N 29°48' W 092°09'0 0.0
2017-Nov-16 05:31N 29°48' W 092°09'0 0.1
2017-Nov-16 05:01N 29°48' W 092°09'0 0.6
2017-Nov-16 04:31N 29°47' W 092°09'2 4.2
2017-Nov-16 04:01N 29°47' W 092°11'0 0.0
2017-Nov-16 03:30N 29°47' W 092°11'0 0.0
2017-Nov-16 03:01N 29°47' W 092°11'1 2.8
2017-Nov-16 02:30N 29°47' W 092°09'2 3.9
2017-Nov-16 02:01N 29°46' W 092°08'7 0.5
2017-Nov-15 11:53N 29°40' W 092°03'615.3
2017-Nov-15 11:30N 29°45' W 092°07'3 6.7
2017-Nov-15 11:00N 29°47' W 092°09'0 0.0
2017-Nov-15 10:30N 29°47' W 092°09'0 0.0
2017-Nov-15 10:00N 29°47' W 092°09'0 0.0
2017-Nov-15 09:30N 29°47' W 092°09'0 0.0
2017-Nov-15 09:00N 29°47' W 092°09'0 0.0
2017-Nov-15 08:30N 29°47' W 092°09'0 0.0
2017-Nov-15 08:00N 29°47' W 092°09'0 0.0
2017-Nov-15 07:31N 29°47' W 092°09'0 0.0
2017-Nov-15 07:00N 29°47' W 092°09'0 0.0
2017-Nov-15 06:30N 29°47' W 092°09'0 0.0
2017-Nov-15 06:00N 29°47' W 092°09'0 0.0
2017-Nov-15 05:30N 29°47' W 092°09'0 0.0
2017-Nov-15 05:00N 29°47' W 092°09'0 0.0
2017-Nov-15 04:31N 29°47' W 092°09'0 0.0
2017-Nov-15 04:00N 29°47' W 092°09'0 0.0
2017-Nov-15 03:30N 29°47' W 092°09'2 4.3
2017-Nov-15 03:00N 29°47' W 092°11'0 0.0
2017-Nov-15 02:30N 29°47' W 092°11'0 0.0
2017-Nov-15 02:00N 29°47' W 092°11'2 4.3
2017-Nov-15 01:30N 29°47' W 092°09'9 0.6
2017-Nov-14 11:58N 29°40' W 092°03'815.5
2017-Nov-14 11:26N 29°47' W 092°09'0 0.9
2017-Nov-14 11:00N 29°48' W 092°09'0 0.0
2017-Nov-14 10:30N 29°48' W 092°09'0 0.0
2017-Nov-14 10:00N 29°48' W 092°09'0 0.0
2017-Nov-14 09:29N 29°48' W 092°09'0 0.0
2017-Nov-14 08:31N 29°48' W 092°09'0 0.2
2017-Nov-14 08:30N 29°48' W 092°09'2 2.4
2017-Nov-14 07:37N 29°47' W 092°11'2 2.0
2017-Nov-14 06:36N 29°48' W 092°09'0 0.0
2017-Nov-14 05:51N 29°48' W 092°09'0 0.0
2017-Nov-14 04:29N 29°48' W 092°09'0 0.3
2017-Nov-14 03:29N 29°47' W 092°09'13 0.3
2017-Nov-12 12:23N 29°35' W 092°02'613.0
2017-Nov-12 11:54N 29°41' W 092°04'7 6.4
2017-Nov-12 10:43N 29°48' W 092°09'0 0.0
2017-Nov-12 10:29N 29°48' W 092°09'0 0.0
2017-Nov-12 09:59N 29°48' W 092°09'0 0.0
2017-Nov-12 09:29N 29°48' W 092°09'0 0.0
2017-Nov-12 08:57N 29°48' W 092°09'0 0.0
2017-Nov-12 08:29N 29°48' W 092°09'0 0.0
2017-Nov-12 01:59N 29°47' W 092°09'2 3.4
2017-Nov-12 01:21N 29°47' W 092°11'0 0.0
2017-Nov-12 00:59N 29°47' W 092°11'6 0.5
2017-Nov-11 11:35N 29°43' W 092°05'216.0
2017-Nov-11 11:29N 29°44' W 092°06'4 2.9
2017-Nov-11 10:07N 29°48' W 092°09'0 0.0
2017-Nov-11 09:47N 29°48' W 092°09'0 0.0
2017-Nov-11 09:09N 29°48' W 092°09'0 0.0
2017-Nov-11 08:59N 29°48' W 092°09'0 0.0
2017-Nov-11 08:27N 29°48' W 092°09'0 0.0
2017-Nov-11 07:59N 29°48' W 092°09'0 0.0
2017-Nov-11 07:25N 29°48' W 092°09'0 0.0
2017-Nov-11 06:55N 29°48' W 092°09'0 0.0
2017-Nov-11 06:29N 29°48' W 092°09'0 0.0
2017-Nov-11 05:33N 29°48' W 092°09'0 0.0
2017-Nov-11 05:27N 29°48' W 092°09'0 0.0
2017-Nov-11 04:59N 29°48' W 092°09'0 0.1
2017-Nov-11 04:29N 29°47' W 092°09'0 0.0
2017-Nov-11 03:59N 29°47' W 092°09'0 0.1
2017-Nov-11 03:30N 29°48' W 092°09'8 0.6
2017-Nov-10 13:52N 29°41' W 092°03'514.4
2017-Nov-10 13:30N 29°45' W 092°07'3 6.0
2017-Nov-10 13:00N 29°48' W 092°09'0 0.0
2017-Nov-10 12:30N 29°48' W 092°09'0 0.1
2017-Nov-10 12:00N 29°48' W 092°09'0 0.0
2017-Nov-10 11:31N 29°48' W 092°09'0 0.0
2017-Nov-10 11:00N 29°48' W 092°09'0 0.0
2017-Nov-10 10:30N 29°48' W 092°09'0 0.0
2017-Nov-10 10:00N 29°48' W 092°09'0 0.0
2017-Nov-10 09:31N 29°48' W 092°09'0 0.0
2017-Nov-10 09:00N 29°48' W 092°09'0 0.0
2017-Nov-10 08:30N 29°48' W 092°09'0 0.0
2017-Nov-10 08:01N 29°48' W 092°09'0 0.0
2017-Nov-10 07:30N 29°48' W 092°09'0 0.0
2017-Nov-10 07:01N 29°48' W 092°09'0 0.0
2017-Nov-10 06:30N 29°48' W 092°09'0 0.0
2017-Nov-10 06:00N 29°48' W 092°09'0 0.0
2017-Nov-10 05:30N 29°48' W 092°09'0 0.0
2017-Nov-10 05:00N 29°48' W 092°09'0 0.0
2017-Nov-10 04:30N 29°48' W 092°09'2 4.2
2017-Nov-10 04:00N 29°47' W 092°11'0 0.0
2017-Nov-10 03:30N 29°47' W 092°11'2 3.3
2017-Nov-10 03:00N 29°47' W 092°09'1 2.9
2017-Nov-10 02:30N 29°46' W 092°08'7 0.4
2017-Nov-09 11:45N 29°41' W 092°03'417.3
2017-Nov-09 11:30N 29°44' W 092°06'4 7.9
2017-Nov-09 11:00N 29°48' W 092°09'0 0.0
2017-Nov-09 10:30N 29°48' W 092°09'0 0.0
2017-Nov-09 10:00N 29°48' W 092°09'0 0.0
2017-Nov-09 09:30N 29°48' W 092°09'0 0.0
2017-Nov-09 09:00N 29°48' W 092°09'0 0.1
2017-Nov-09 08:30N 29°47' W 092°09'0 0.0
2017-Nov-09 08:00N 29°47' W 092°09'0 0.0
2017-Nov-09 07:30N 29°47' W 092°09'0 0.0
2017-Nov-09 07:00N 29°47' W 092°09'0 0.0
2017-Nov-09 06:30N 29°47' W 092°09'0 0.2
2017-Nov-09 06:00N 29°48' W 092°09'0 0.0
2017-Nov-09 05:30N 29°48' W 092°09'0 0.0
2017-Nov-09 05:00N 29°48' W 092°09'0 0.0
2017-Nov-09 04:30N 29°48' W 092°09'0 0.0
2017-Nov-09 04:00N 29°48' W 092°09'0 0.0
2017-Nov-09 03:30N 29°48' W 092°09'0 0.1
2017-Nov-09 03:00N 29°48' W 092°09'9 0.6
2017-Nov-08 12:03N 29°40' W 092°03'011.3
2017-Nov-08 12:00N 29°40' W 092°03'  

Dump ship's entire track history